createdAt,value
2022-10-31T00:01:35.852Z,15.77
2022-10-31T00:04:07.487Z,15.50
2022-10-31T00:06:34.540Z,15.77
2022-10-31T00:09:08.191Z,14.77
2022-10-31T00:11:35.242Z,15.87
2022-10-31T00:14:02.531Z,15.27
2022-10-31T00:16:30.778Z,15.23
2022-10-31T00:19:01.191Z,15.43
2022-10-31T00:21:32.057Z,14.70
2022-10-31T00:24:00.481Z,16.70
2022-10-31T00:26:32.412Z,15.07
2022-10-31T00:29:02.184Z,15.27
2022-10-31T00:31:31.382Z,15.83
2022-10-31T00:33:59.135Z,15.27
2022-10-31T00:36:29.058Z,14.80
2022-10-31T00:38:56.279Z,16.30
2022-10-31T00:41:25.889Z,15.23
2022-10-31T00:43:52.831Z,14.87
2022-10-31T00:46:19.698Z,14.57
2022-10-31T00:48:46.686Z,16.37
2022-10-31T00:51:16.121Z,15.40
2022-10-31T00:53:45.547Z,14.30
2022-10-31T00:56:14.500Z,14.53
2022-10-31T00:58:41.350Z,15.47
2022-10-31T01:01:10.561Z,14.97
2022-10-31T01:03:39.551Z,15.27
2022-10-31T01:06:13.068Z,15.20
2022-10-31T01:08:40.431Z,14.60
2022-10-31T01:11:20.778Z,14.43
2022-10-31T01:13:50.800Z,14.90
2022-10-31T01:16:23.654Z,14.33
2022-10-31T01:18:53.695Z,15.07
2022-10-31T01:21:30.169Z,15.03
2022-10-31T01:23:57.811Z,14.40
2022-10-31T01:26:28.546Z,15.20
2022-10-31T01:28:59.072Z,15.13
2022-10-31T01:31:32.670Z,15.60
2022-10-31T01:34:00.255Z,15.17
2022-10-31T01:36:32.563Z,13.43
2022-10-31T01:39:06.281Z,14.03
2022-10-31T01:41:44.168Z,13.67
2022-10-31T01:44:17.135Z,14.80
2022-10-31T01:46:49.527Z,14.13
2022-10-31T01:49:40.203Z,15.23
2022-10-31T01:52:26.258Z,14.53
2022-10-31T01:55:09.689Z,13.93
2022-10-31T01:57:39.082Z,14.87
2022-10-31T02:00:11.085Z,13.90
2022-10-31T02:02:38.080Z,13.47
2022-10-31T02:05:13.691Z,14.47
2022-10-31T02:08:01.353Z,15.00
2022-10-31T02:10:31.057Z,15.27
2022-10-31T02:13:01.989Z,15.10
2022-10-31T02:15:31.269Z,14.60
2022-10-31T02:17:58.681Z,15.23
2022-10-31T02:20:33.294Z,14.70
2022-10-31T02:23:46.474Z,14.83
2022-10-31T02:26:49.860Z,14.47
2022-10-31T02:30:02.234Z,15.27
2022-10-31T02:32:58.030Z,16.20
2022-10-31T02:35:49.479Z,13.83
2022-10-31T02:38:43.676Z,14.63
2022-10-31T02:41:32.593Z,17.20
2022-10-31T02:44:08.289Z,17.63
2022-10-31T02:46:57.233Z,20.67
2022-10-31T02:49:54.312Z,18.93
2022-10-31T02:52:35.759Z,21.47
2022-10-31T02:55:23.763Z,21.33
2022-10-31T02:57:53.649Z,18.03
2022-10-31T03:00:20.568Z,20.20
2022-10-31T03:02:59.664Z,18.17
2022-10-31T03:05:51.047Z,18.90
2022-10-31T03:08:36.924Z,17.97
2022-10-31T03:11:07.825Z,18.70
2022-10-31T03:13:47.740Z,16.23
2022-10-31T03:16:32.993Z,17.83
2022-10-31T03:19:15.964Z,17.30
2022-10-31T03:22:07.776Z,21.97
2022-10-31T03:24:42.768Z,20.17
2022-10-31T03:27:16.615Z,24.97
2022-10-31T03:29:48.307Z,23.67
2022-10-31T03:32:23.532Z,26.20
2022-10-31T03:34:54.494Z,20.20
2022-10-31T03:37:25.847Z,27.30
2022-10-31T03:39:55.322Z,28.30
2022-10-31T03:42:30.141Z,28.67
2022-10-31T03:45:13.193Z,31.90
2022-10-31T03:47:44.506Z,30.63
2022-10-31T03:50:14.738Z,36.40
2022-10-31T03:53:12.520Z,35.07
2022-10-31T03:55:48.979Z,35.60
2022-10-31T03:58:44.326Z,38.10
2022-10-31T04:01:17.133Z,34.27
2022-10-31T04:03:48.071Z,37.03
2022-10-31T04:06:20.638Z,36.60
2022-10-31T04:08:56.869Z,36.17
2022-10-31T04:11:31.197Z,38.70
2022-10-31T04:14:01.058Z,39.57
2022-10-31T04:16:28.441Z,38.20
2022-10-31T04:18:55.987Z,36.57
2022-10-31T04:21:30.260Z,37.67
2022-10-31T04:23:59.658Z,37.07
2022-10-31T04:26:29.778Z,42.10
2022-10-31T04:28:58.649Z,38.10
2022-10-31T04:31:25.578Z,38.57
2022-10-31T04:33:52.428Z,38.27
2022-10-31T04:36:19.280Z,41.70
2022-10-31T04:38:51.082Z,41.03
2022-10-31T04:41:19.148Z,40.50
2022-10-31T04:43:46.167Z,36.83
2022-10-31T04:46:15.344Z,36.77
2022-10-31T04:48:42.337Z,36.83
2022-10-31T04:51:11.556Z,39.00
2022-10-31T04:53:38.669Z,38.57
2022-10-31T04:56:08.187Z,37.93
2022-10-31T04:58:35.082Z,38.43
2022-10-31T05:01:02.150Z,40.47
2022-10-31T05:03:31.098Z,36.97
2022-10-31T05:06:02.560Z,36.47
2022-10-31T05:08:29.387Z,35.10
2022-10-31T05:10:59.161Z,37.00
2022-10-31T05:13:28.803Z,38.77
2022-10-31T05:15:55.929Z,38.80
2022-10-31T05:18:23.381Z,37.60
2022-10-31T05:20:50.278Z,38.23
2022-10-31T05:23:17.115Z,38.00
2022-10-31T05:25:44.073Z,37.03
2022-10-31T05:28:14.016Z,39.20
2022-10-31T05:30:40.866Z,39.00
2022-10-31T05:33:07.726Z,39.03
2022-10-31T05:35:34.649Z,37.70
2022-10-31T05:38:03.935Z,42.87
2022-10-31T05:40:30.789Z,38.53
2022-10-31T05:43:00.939Z,38.90
2022-10-31T05:45:30.572Z,40.07
2022-10-31T05:48:00.839Z,39.03
2022-10-31T05:50:34.570Z,38.80
2022-10-31T05:53:04.785Z,38.13
2022-10-31T05:55:32.846Z,38.13
2022-10-31T05:58:00.124Z,37.70
2022-10-31T06:00:30.613Z,38.97
2022-10-31T06:03:02.554Z,37.00
2022-10-31T06:05:32.690Z,37.10
2022-10-31T06:08:00.057Z,38.97
2022-10-31T06:10:28.021Z,35.80
2022-10-31T06:12:55.059Z,35.70
2022-10-31T06:15:25.114Z,36.70
2022-10-31T06:18:05.618Z,37.60
2022-10-31T06:20:35.949Z,37.40
2022-10-31T06:23:06.052Z,35.17
2022-10-31T06:25:34.111Z,35.70
2022-10-31T06:28:03.660Z,33.07
2022-10-31T06:30:30.733Z,34.73
2022-10-31T06:33:04.751Z,34.33
2022-10-31T06:35:34.451Z,34.43
2022-10-31T06:38:01.747Z,33.60
2022-10-31T06:40:28.898Z,35.60
2022-10-31T06:43:02.978Z,32.60
2022-10-31T06:45:30.327Z,33.87
2022-10-31T06:48:15.933Z,33.00
2022-10-31T06:50:43.768Z,31.77
2022-10-31T06:55:43.322Z,32.37
2022-10-31T06:58:13.753Z,30.00
2022-10-31T07:00:40.823Z,30.10
2022-10-31T07:03:13.689Z,29.10
2022-10-31T07:05:43.266Z,31.27
2022-10-31T07:08:13.989Z,28.40
2022-10-31T07:10:44.971Z,29.30
2022-10-31T07:13:15.201Z,27.30
2022-10-31T07:15:43.865Z,27.60
2022-10-31T07:18:14.032Z,27.27
2022-10-31T07:20:41.080Z,27.43
2022-10-31T07:23:11.273Z,27.20
2022-10-31T07:25:41.055Z,27.77
2022-10-31T07:28:11.109Z,26.87
2022-10-31T07:30:40.982Z,27.50
2022-10-31T07:33:10.537Z,26.10
2022-10-31T07:35:37.464Z,25.77
2022-10-31T07:38:12.977Z,24.83
2022-10-31T07:40:40.974Z,25.93
2022-10-31T07:43:11.669Z,26.47
2022-10-31T07:45:44.078Z,23.80
2022-10-31T07:48:11.001Z,25.00
2022-10-31T07:50:42.487Z,25.67
2022-10-31T07:53:14.405Z,24.80
2022-10-31T07:55:41.904Z,23.57
2022-10-31T07:58:13.284Z,24.57
2022-10-31T08:00:42.945Z,23.30
2022-10-31T08:03:16.087Z,24.17
2022-10-31T08:05:47.352Z,22.00
2022-10-31T08:08:18.609Z,22.30
2022-10-31T08:10:46.137Z,22.57
2022-10-31T08:13:16.204Z,22.10
2022-10-31T08:15:52.322Z,20.67
2022-10-31T08:18:22.125Z,19.60
2022-10-31T08:20:49.137Z,20.33
2022-10-31T08:23:18.351Z,21.73
2022-10-31T08:25:47.800Z,20.77
2022-10-31T08:28:16.051Z,20.13
2022-10-31T08:30:46.824Z,20.33
2022-10-31T08:33:20.374Z,19.33
2022-10-31T08:35:48.713Z,19.97
2022-10-31T08:38:15.753Z,20.60
2022-10-31T08:40:51.651Z,19.07
2022-10-31T08:43:21.943Z,19.80
2022-10-31T08:45:50.544Z,20.50
2022-10-31T08:48:22.111Z,20.97
2022-10-31T08:50:49.492Z,19.00
2022-10-31T08:53:21.798Z,19.53
2022-10-31T08:55:48.634Z,19.83
2022-10-31T08:58:21.591Z,18.03
2022-10-31T09:00:52.616Z,18.70
2022-10-31T09:03:28.487Z,16.73
2022-10-31T09:06:03.797Z,19.10
2022-10-31T09:08:32.182Z,18.80
2022-10-31T09:11:02.047Z,22.00
2022-10-31T09:13:31.012Z,17.77
2022-10-31T09:16:01.550Z,17.93
2022-10-31T09:18:33.128Z,18.23
2022-10-31T09:21:01.314Z,18.93
2022-10-31T09:23:33.491Z,18.70
2022-10-31T09:26:04.618Z,17.47
2022-10-31T09:28:36.669Z,16.77
2022-10-31T09:31:03.532Z,17.00
2022-10-31T09:33:30.573Z,16.20
2022-10-31T09:35:59.563Z,16.80
2022-10-31T09:38:29.076Z,15.73
2022-10-31T09:41:39.374Z,17.30
2022-10-31T09:44:34.414Z,17.80
2022-10-31T09:47:07.625Z,16.23
2022-10-31T09:50:03.675Z,15.97
2022-10-31T09:52:41.768Z,15.10
2022-10-31T09:55:37.722Z,13.77
2022-10-31T09:58:11.510Z,14.00
2022-10-31T10:00:38.540Z,14.13
2022-10-31T10:03:31.159Z,12.77
2022-10-31T10:06:22.758Z,12.70
2022-10-31T10:08:50.079Z,13.00
2022-10-31T10:11:51.455Z,11.60
2022-10-31T10:14:43.443Z,12.53
2022-10-31T10:17:40.453Z,12.43
2022-10-31T10:20:30.687Z,12.53
2022-10-31T10:24:11.733Z,12.53
2022-10-31T10:26:44.838Z,11.57
2022-10-31T10:29:37.372Z,12.47
2022-10-31T10:32:17.322Z,11.17
2022-10-31T10:34:53.707Z,9.93
2022-10-31T10:37:32.695Z,10.80
2022-10-31T10:40:29.502Z,10.70
2022-10-31T10:43:23.943Z,10.83
2022-10-31T10:46:57.898Z,10.00
2022-10-31T10:49:54.609Z,8.97
2022-10-31T10:52:45.964Z,9.43
2022-10-31T10:55:40.548Z,9.23
2022-10-31T10:58:09.934Z,8.90
2022-10-31T11:00:50.716Z,8.27
2022-10-31T11:03:20.682Z,9.20
2022-10-31T11:06:02.984Z,9.73
2022-10-31T11:08:39.557Z,8.90
2022-10-31T11:11:32.899Z,9.67
2022-10-31T11:14:12.432Z,9.10
2022-10-31T11:16:43.972Z,8.17
2022-10-31T11:19:15.858Z,8.33
2022-10-31T11:21:49.854Z,8.33
2022-10-31T11:24:28.415Z,9.30
2022-10-31T11:27:17.163Z,8.10
2022-10-31T11:29:46.287Z,8.47
2022-10-31T11:32:34.042Z,9.83
2022-10-31T11:35:13.452Z,8.67
2022-10-31T11:37:47.401Z,7.97
2022-10-31T11:40:24.208Z,6.83
2022-10-31T11:42:57.217Z,7.57
2022-10-31T11:45:24.230Z,6.60
2022-10-31T11:47:59.546Z,6.37
2022-10-31T11:50:39.612Z,6.93
2022-10-31T11:53:22.170Z,6.90
2022-10-31T11:56:21.298Z,6.13
2022-10-31T11:59:06.955Z,7.60
2022-10-31T12:01:44.103Z,7.00
2022-10-31T12:04:14.029Z,6.10
2022-10-31T12:06:46.857Z,5.97
2022-10-31T12:09:27.932Z,6.20
2022-10-31T12:12:04.932Z,6.23
2022-10-31T12:14:59.517Z,6.17
2022-10-31T12:20:50.857Z,6.30
2022-10-31T12:23:45.712Z,6.83
2022-10-31T12:26:27.456Z,7.50
2022-10-31T12:29:30.527Z,6.40
2022-10-31T12:32:08.532Z,6.27
2022-10-31T12:35:05.789Z,5.70
2022-10-31T12:37:44.574Z,6.20
2022-10-31T12:40:40.745Z,4.60
2022-10-31T12:43:24.372Z,6.17
2022-10-31T12:46:00.261Z,5.17
2022-10-31T12:48:48.219Z,5.03
2022-10-31T12:51:39.157Z,5.07
2022-10-31T12:54:51.330Z,4.60
2022-10-31T12:57:25.161Z,4.53
2022-10-31T13:00:05.937Z,4.93
2022-10-31T13:03:22.471Z,5.90
2022-10-31T13:05:58.244Z,5.30
2022-10-31T13:08:39.310Z,5.10
2022-10-31T13:11:20.101Z,5.80
2022-10-31T13:13:56.478Z,4.93
2022-10-31T13:16:31.911Z,6.20
2022-10-31T13:19:30.301Z,5.10
2022-10-31T13:22:22.743Z,4.87
2022-10-31T13:25:13.024Z,4.33
2022-10-31T13:27:45.494Z,5.13
2022-10-31T13:30:26.904Z,6.50
2022-10-31T13:33:22.649Z,4.83
2022-10-31T13:36:24.924Z,5.00
2022-10-31T13:39:11.667Z,5.50
2022-10-31T13:41:54.874Z,4.43
2022-10-31T13:44:35.888Z,5.80
2022-10-31T13:47:30.564Z,5.43
2022-10-31T13:50:23.009Z,5.97
2022-10-31T13:52:50.058Z,7.60
2022-10-31T13:55:44.756Z,6.13
2022-10-31T13:58:28.632Z,6.40
2022-10-31T14:01:25.230Z,6.70
2022-10-31T14:04:42.931Z,6.43
2022-10-31T14:07:16.221Z,6.27
2022-10-31T14:09:54.288Z,7.23
2022-10-31T14:12:30.078Z,5.60
2022-10-31T14:15:13.548Z,5.20
2022-10-31T14:18:01.193Z,6.30
2022-10-31T14:20:43.834Z,6.20
2022-10-31T14:23:31.918Z,5.63
2022-10-31T14:26:29.798Z,5.70
2022-10-31T14:29:07.347Z,6.37
2022-10-31T14:31:37.749Z,6.37
2022-10-31T14:34:35.632Z,6.10
2022-10-31T14:37:41.360Z,6.63
2022-10-31T14:40:29.090Z,6.53
2022-10-31T14:43:16.926Z,6.53
2022-10-31T14:45:46.633Z,7.07
2022-10-31T14:48:35.214Z,8.03
2022-10-31T14:51:13.444Z,7.30
2022-10-31T14:53:56.404Z,8.30
2022-10-31T14:56:34.856Z,8.33
2022-10-31T14:59:08.508Z,8.00
2022-10-31T15:01:39.848Z,8.53
2022-10-31T15:04:23.163Z,8.60
2022-10-31T15:07:21.721Z,8.93
2022-10-31T15:10:08.003Z,7.53
2022-10-31T15:12:39.449Z,9.60
2022-10-31T15:15:29.842Z,8.63
2022-10-31T15:18:00.333Z,8.37
2022-10-31T15:20:43.263Z,8.67
2022-10-31T15:23:24.505Z,7.90
2022-10-31T15:25:51.631Z,8.30
2022-10-31T15:28:32.366Z,8.40
2022-10-31T15:31:04.205Z,8.37
2022-10-31T15:33:43.932Z,9.10
2022-10-31T15:36:28.478Z,10.50
2022-10-31T15:38:58.709Z,8.70
2022-10-31T15:41:29.115Z,9.20
2022-10-31T15:44:03.071Z,11.07
2022-10-31T15:46:30.956Z,11.30
2022-10-31T15:49:01.220Z,11.57
2022-10-31T15:51:33.619Z,12.77
2022-10-31T15:54:01.310Z,17.10
2022-10-31T15:56:33.131Z,17.47
2022-10-31T15:59:01.988Z,18.30
2022-10-31T16:01:34.212Z,20.80
2022-10-31T16:04:13.746Z,19.97
2022-10-31T16:06:40.858Z,19.70
2022-10-31T16:09:24.811Z,20.87
2022-10-31T16:11:52.415Z,19.30
2022-10-31T16:14:26.166Z,19.80
2022-10-31T16:16:57.078Z,21.60
2022-10-31T16:19:34.910Z,21.60
2022-10-31T16:22:19.673Z,20.50
2022-10-31T16:24:52.318Z,21.30
2022-10-31T16:27:27.899Z,21.50
2022-10-31T16:29:57.171Z,21.53
2022-10-31T16:32:29.702Z,19.47
2022-10-31T16:35:26.485Z,19.40
2022-10-31T16:37:53.970Z,18.60
2022-10-31T16:40:21.743Z,20.37
2022-10-31T16:42:51.619Z,19.77
2022-10-31T16:45:25.006Z,20.63
2022-10-31T16:47:54.888Z,19.50
2022-10-31T16:50:30.973Z,19.27
2022-10-31T16:53:13.276Z,18.63
2022-10-31T16:55:59.401Z,22.07
2022-10-31T16:58:34.103Z,19.73
2022-10-31T17:01:03.250Z,20.53
2022-10-31T17:03:31.186Z,18.80
2022-10-31T17:06:00.656Z,18.97
2022-10-31T17:08:27.583Z,18.47
2022-10-31T17:11:01.158Z,19.60
2022-10-31T17:13:31.344Z,19.77
2022-10-31T17:16:01.138Z,20.20
2022-10-31T17:18:28.742Z,22.20
2022-10-31T17:21:02.135Z,21.10
2022-10-31T17:23:33.297Z,25.60
2022-10-31T17:26:01.275Z,28.03
2022-10-31T17:28:31.472Z,27.00
2022-10-31T17:31:03.745Z,26.30
2022-10-31T17:33:57.297Z,27.07
2022-10-31T17:36:30.811Z,28.07
2022-10-31T17:39:00.302Z,28.90
2022-10-31T17:41:27.164Z,26.93
2022-10-31T17:43:58.620Z,26.77
2022-10-31T17:46:26.349Z,26.60
2022-10-31T17:48:53.243Z,27.40
2022-10-31T17:51:22.372Z,24.90
2022-10-31T17:53:49.260Z,25.10
2022-10-31T17:56:20.729Z,26.07
2022-10-31T17:58:47.554Z,26.80
2022-10-31T18:01:17.014Z,26.03
2022-10-31T18:03:45.022Z,25.57
2022-10-31T18:06:14.492Z,26.13
2022-10-31T18:08:44.697Z,25.93
2022-10-31T18:11:16.802Z,27.07
2022-10-31T18:13:43.738Z,25.43
2022-10-31T18:16:14.679Z,23.87
2022-10-31T18:18:44.103Z,24.47
2022-10-31T18:21:13.588Z,23.73
2022-10-31T18:23:40.573Z,26.10
2022-10-31T18:26:07.534Z,25.60
2022-10-31T18:28:34.531Z,26.60
2022-10-31T18:31:04.484Z,24.93
2022-10-31T18:33:33.990Z,25.20
2022-10-31T18:36:06.545Z,24.97
2022-10-31T18:38:38.195Z,26.90
2022-10-31T18:41:05.580Z,25.40
2022-10-31T18:43:33.596Z,25.77
2022-10-31T18:46:09.353Z,24.80
2022-10-31T18:48:37.622Z,25.53
2022-10-31T18:51:08.667Z,27.70
2022-10-31T18:53:38.425Z,27.63
2022-10-31T18:56:10.621Z,24.10
2022-10-31T18:58:37.780Z,23.90
2022-10-31T19:01:10.535Z,23.60
2022-10-31T19:03:40.985Z,24.67
2022-10-31T19:06:12.135Z,22.80
2022-10-31T19:08:44.663Z,22.00
2022-10-31T19:11:14.302Z,22.80
2022-10-31T19:13:43.109Z,22.10
2022-10-31T19:16:14.174Z,20.50
2022-10-31T19:18:45.681Z,21.00
2022-10-31T19:21:16.021Z,23.20
2022-10-31T19:23:44.362Z,21.13
2022-10-31T19:26:15.078Z,20.50
2022-10-31T19:28:42.779Z,21.37
2022-10-31T19:31:12.285Z,22.33
2022-10-31T19:33:43.894Z,22.67
2022-10-31T19:36:15.042Z,20.90
2022-10-31T19:38:46.567Z,22.27
2022-10-31T19:41:30.683Z,21.77
2022-10-31T19:44:13.318Z,23.23
2022-10-31T19:46:54.130Z,21.53
2022-10-31T19:49:23.030Z,20.93
2022-10-31T19:52:17.935Z,22.40
2022-10-31T20:01:56.855Z,20.07
2022-10-31T20:04:53.372Z,19.53
2022-10-31T20:07:26.612Z,21.13
2022-10-31T20:10:26.963Z,19.50
2022-10-31T20:16:54.828Z,20.13
2022-10-31T20:19:58.520Z,19.80
2022-10-31T20:23:08.648Z,20.33
2022-10-31T20:26:32.765Z,20.17
2022-10-31T20:29:46.419Z,20.00
2022-10-31T20:32:17.392Z,20.40
2022-10-31T20:34:44.678Z,22.00
2022-10-31T20:37:14.039Z,20.07
2022-10-31T20:39:41.192Z,21.50
2022-10-31T20:42:10.628Z,21.87
2022-10-31T20:44:40.056Z,20.60
2022-10-31T20:47:09.033Z,20.07
2022-10-31T20:49:35.915Z,19.97
2022-10-31T20:52:13.969Z,18.13
2022-10-31T20:54:40.917Z,21.40
2022-10-31T20:57:12.421Z,20.03
2022-10-31T20:59:39.687Z,21.30
2022-10-31T21:02:09.828Z,22.63
2022-10-31T21:04:36.836Z,21.27
2022-10-31T21:07:06.479Z,21.93
2022-10-31T21:09:33.478Z,21.30
2022-10-31T21:12:00.765Z,23.23
2022-10-31T21:14:27.579Z,20.20
2022-10-31T21:16:57.509Z,21.33
2022-10-31T21:19:24.427Z,22.37
2022-10-31T21:21:51.419Z,21.50
2022-10-31T21:24:23.858Z,22.63
2022-10-31T21:26:55.971Z,22.67
2022-10-31T21:29:23.019Z,22.67
2022-10-31T21:31:50.178Z,23.47
2022-10-31T21:34:18.212Z,23.33
2022-10-31T21:36:45.478Z,23.03
2022-10-31T21:39:12.765Z,22.80
2022-10-31T21:41:44.445Z,24.63
2022-10-31T21:44:15.872Z,24.20
2022-10-31T21:46:43.142Z,24.70
2022-10-31T21:49:11.483Z,23.77
2022-10-31T21:51:38.800Z,25.07
2022-10-31T21:54:24.840Z,24.93
2022-10-31T21:56:52.190Z,27.00
2022-10-31T21:59:19.844Z,25.30
2022-10-31T22:01:46.938Z,26.70
2022-10-31T22:04:19.719Z,27.10
2022-10-31T22:06:49.642Z,26.13
2022-10-31T22:09:20.304Z,27.23
2022-10-31T22:11:50.621Z,27.20
2022-10-31T22:14:17.840Z,29.13
2022-10-31T22:16:47.209Z,28.30
2022-10-31T22:19:16.592Z,28.30
2022-10-31T22:21:48.770Z,28.87
2022-10-31T22:24:19.992Z,29.10
2022-10-31T22:26:47.254Z,29.03
2022-10-31T22:29:23.013Z,30.07
2022-10-31T22:31:55.273Z,28.60
2022-10-31T22:34:28.507Z,29.10
2022-10-31T22:36:58.068Z,29.77
2022-10-31T22:39:27.701Z,30.93
2022-10-31T22:41:56.884Z,29.47
2022-10-31T22:44:26.174Z,29.40
2022-10-31T22:46:53.437Z,29.00
2022-10-31T22:49:23.361Z,28.57
2022-10-31T22:51:52.076Z,30.60
2022-10-31T22:54:19.301Z,29.67
2022-10-31T22:56:46.815Z,30.20
2022-10-31T22:59:16.870Z,28.93
2022-10-31T23:01:50.010Z,30.63
2022-10-31T23:04:17.288Z,29.93
2022-10-31T23:06:46.973Z,29.90
2022-10-31T23:09:20.863Z,29.77
2022-10-31T23:11:47.926Z,28.80
2022-10-31T23:14:22.004Z,29.43
2022-10-31T23:16:52.879Z,28.57
2022-10-31T23:19:28.146Z,28.50
2022-10-31T23:22:04.495Z,27.23
2022-10-31T23:24:37.564Z,28.50
2022-10-31T23:27:19.737Z,28.30
2022-10-31T23:29:57.275Z,29.33
2022-10-31T23:32:33.783Z,29.47
2022-10-31T23:35:08.161Z,28.10
2022-10-31T23:37:39.738Z,30.20
2022-10-31T23:40:08.693Z,30.70
2022-10-31T23:42:36.208Z,28.40
2022-10-31T23:45:06.193Z,28.63
2022-10-31T23:47:38.356Z,29.03
2022-10-31T23:50:10.495Z,28.33
2022-10-31T23:52:39.659Z,29.03
2022-10-31T23:55:07.107Z,29.40
2022-10-31T23:57:34.242Z,28.70
